Terminal Aerodrome Forecast
Issued by NWS

Current Version | Previous Version | Text Only | Print | Product List | Glossary Off
Versions: 1 2 3 4 5 6 7 8 9 10 11 12 13 14 15 16 17 18 19 20 21

000
FTUS41 KPBZ 051100 AAA
TAFMGW
TAF AMD
KMGW 051141Z 0512/0606 34010KT 1 1/2SM -SN OVC015
     FM051400 34007KT P6SM BKN025
     FM052100 31010KT P6SM BKN035
     FM052300 32005KT P6SM FEW030=

USA.gov is the U.S. government's official web portal to all federal, state and local government web resources and services.